Cap Jackson — A8VL6 — position and weather

sailwx.info

Track history (hours):
 
Tides and Currents Weather Stations Pressure Air Temp Water Temp Dewpoint Dewpoint Depression Visibility Wind Speed Wind Dir Waves Ship Positions

Cap Jackson

Last reported at 2018-Apr-04 21:39 UTC. Time now 2018-Jul-19 14:57 UTC.
Position N 44°25' E 008°47'.
Warning: this ship's position is months out of date.

Length 264 m; draft 8.4 m.

Type: Ship (hazmat cat A). MMSI: 636092020.

Date/timePositionNaut miles runAvg speedWind from/ knotsBaromVisibWave heightAir tempDewpointWater temp
2018-Apr-04 21:39N 44°25' E 008°47'0 0.0
2018-Apr-04 21:30N 44°25' E 008°47'0 0.0
2018-Apr-04 21:00N 44°25' E 008°47'0 0.0
2018-Apr-04 20:30N 44°25' E 008°47'0 0.0
2018-Apr-04 20:00N 44°25' E 008°47'0 0.0
2018-Apr-04 19:30N 44°25' E 008°47'0 0.0
2018-Apr-04 19:00N 44°25' E 008°47'0 0.0
2018-Apr-04 18:30N 44°25' E 008°47'0 0.0
2018-Apr-04 18:00N 44°25' E 008°47'0 0.0
2018-Apr-04 17:30N 44°25' E 008°47'0 0.0
2018-Apr-04 17:00N 44°25' E 008°47'0 0.0
2018-Apr-04 16:30N 44°25' E 008°47'0 0.0
2018-Apr-04 16:00N 44°25' E 008°47'0 0.0
2018-Apr-04 15:30N 44°25' E 008°47'0 0.0
2018-Apr-04 15:00N 44°25' E 008°47'0 0.0
2018-Apr-04 14:30N 44°25' E 008°47'0 0.0
2018-Apr-04 14:00N 44°25' E 008°47'0 0.0
2018-Apr-04 13:30N 44°25' E 008°47'0 0.0
2018-Apr-04 13:00N 44°25' E 008°47'0 0.0
2018-Apr-04 12:27N 44°25' E 008°47'0 0.0
2018-Apr-04 12:00N 44°25' E 008°47'0 0.0
2018-Apr-04 11:30N 44°25' E 008°47'0 0.0
2018-Apr-04 11:00N 44°25' E 008°47'0 0.0
2018-Apr-04 10:30N 44°25' E 008°47'0 0.0
2018-Apr-04 10:00N 44°25' E 008°47'0 0.0
2018-Apr-04 09:30N 44°25' E 008°47'0 0.0
2018-Apr-04 09:00N 44°25' E 008°47'0 0.0
2018-Apr-04 08:30N 44°25' E 008°47'0 0.0
2018-Apr-04 08:00N 44°25' E 008°47'0 0.7
2018-Apr-04 07:30N 44°25' E 008°47'3 5.7
2018-Apr-04 07:00N 44°23' E 008°44'4 7.0
2018-Apr-04 06:30N 44°20' E 008°44'4 8.4
2018-Apr-04 06:00N 44°16' E 008°47'4 8.6
2018-Apr-04 05:30N 44°12' E 008°50'4 7.8
2018-Apr-04 05:01N 44°09' E 008°52'4 7.6
2018-Apr-04 04:30N 44°05' E 008°54'5 9.5
2018-Apr-04 04:00N 44°02' E 008°60'5 9.7
2018-Apr-04 03:30N 43°59' E 009°05'510.0
2018-Apr-04 03:00N 43°56' E 009°10'713.6
2018-Apr-04 02:30N 43°52' E 009°18'713.9
2018-Apr-04 02:00N 43°47' E 009°25'714.6
2018-Apr-04 01:30N 43°43' E 009°33'714.1
2018-Apr-04 01:00N 43°38' E 009°41'713.9
2018-Apr-04 00:30N 43°34' E 009°48'713.4
2018-Apr-04 00:00N 43°30' E 009°56'612.8
2018-Apr-03 23:30N 43°30' E 010°05'612.8
2018-Apr-03 23:00N 43°32' E 010°14'4 7.2
2018-Apr-03 22:30N 43°34' E 010°18'1 2.0
2018-Apr-03 22:00N 43°34' E 010°18'0 0.0
2018-Apr-03 21:28N 43°34' E 010°18'0 0.0
2018-Apr-03 20:58N 43°34' E 010°18'0 0.0
2018-Apr-03 20:28N 43°34' E 010°18'0 0.0
2018-Apr-03 19:58N 43°34' E 010°18'0 0.0
2018-Apr-03 19:28N 43°34' E 010°18'0 0.0
2018-Apr-03 18:58N 43°34' E 010°18'0 0.0
2018-Apr-03 18:28N 43°34' E 010°18'0 0.0
2018-Apr-03 17:58N 43°34' E 010°18'0 0.0
2018-Apr-03 17:28N 43°34' E 010°18'0 0.0
2018-Apr-03 16:58N 43°34' E 010°18'0 0.0
2018-Apr-03 16:28N 43°34' E 010°18'0 0.0
2018-Apr-03 15:58N 43°34' E 010°18'0 0.0
2018-Apr-03 15:28N 43°34' E 010°18'0 0.0
2018-Apr-03 14:58N 43°34' E 010°18'0 0.0
2018-Apr-03 14:28N 43°34' E 010°18'0 0.0
2018-Apr-03 13:58N 43°34' E 010°18'0 0.0
2018-Apr-03 13:28N 43°34' E 010°18'0 0.0
2018-Apr-03 12:55N 43°34' E 010°18'0 0.0
2018-Apr-03 12:28N 43°34' E 010°18'0 0.0
2018-Apr-03 11:58N 43°34' E 010°18'0 0.0
2018-Apr-03 11:25N 43°34' E 010°18'0 0.0
2018-Apr-03 10:58N 43°34' E 010°18'0 0.0
2018-Apr-03 10:28N 43°34' E 010°18'0 0.0
2018-Apr-03 09:58N 43°34' E 010°18'0 0.0
2018-Apr-03 09:28N 43°34' E 010°18'0 0.0
2018-Apr-03 08:58N 43°34' E 010°18'0 0.0
2018-Apr-03 08:28N 43°34' E 010°18'0 0.0
2018-Apr-03 07:58N 43°34' E 010°18'0 0.0
2018-Apr-03 07:28N 43°34' E 010°18'0 0.0
2018-Apr-03 06:58N 43°34' E 010°18'0 0.0
2018-Apr-03 06:28N 43°34' E 010°18'0 0.0
2018-Apr-03 05:58N 43°34' E 010°18'0 0.0
2018-Apr-03 05:28N 43°34' E 010°18'0 0.6
2018-Apr-03 05:00N 43°34' E 010°18'3 5.6
2018-Apr-03 04:30N 43°32' E 010°16'4 7.0
2018-Apr-03 04:00N 43°30' E 010°12'2 4.6
2018-Apr-03 03:30N 43°28' E 010°11'4 8.2
2018-Apr-03 03:00N 43°24' E 010°10'5 9.9
2018-Apr-03 02:30N 43°19' E 010°08'611.4
2018-Apr-03 02:00N 43°13' E 010°06'917.4
2018-Apr-03 01:31N 43°05' E 010°03'917.6
2018-Apr-03 01:00N 42°56' E 010°00'1917.8
2018-Apr-02 23:55N 42°37' E 009°58'21818.3
2018-Apr-02 12:00N 39°00' E 009°36'611.2 090 / 151016.710.8 17.612.013.0
2018-Apr-02 11:27N 38°59' E 009°28'818.0
2018-Apr-02 11:00N 39°01' E 009°18'817.3
2018-Apr-02 10:30N 39°05' E 009°09'611.3
2018-Apr-02 10:00N 39°11' E 009°06'3 6.4
2018-Apr-02 09:30N 39°13' E 009°04'0 0.8
2018-Apr-02 08:59N 39°13' E 009°04'0 0.0
2018-Apr-02 08:30N 39°13' E 009°04'0 0.0
2018-Apr-02 07:58N 39°13' E 009°04'0 0.0
2018-Apr-02 07:28N 39°13' E 009°04'0 0.0
2018-Apr-02 06:58N 39°13' E 009°04'0 0.0
2018-Apr-02 06:28N 39°13' E 009°04'0 0.0
2018-Apr-02 05:58N 39°13' E 009°04'0 0.0
2018-Apr-02 05:28N 39°13' E 009°04'0 0.0
2018-Apr-02 04:58N 39°13' E 009°04'0 0.0
2018-Apr-02 04:28N 39°13' E 009°04'0 0.0
2018-Apr-02 03:58N 39°13' E 009°04'0 0.0
2018-Apr-02 03:28N 39°13' E 009°04'0 0.0
2018-Apr-02 02:58N 39°13' E 009°04'0 0.0
2018-Apr-02 02:25N 39°13' E 009°04'0 0.0
2018-Apr-02 01:58N 39°13' E 009°04'0 0.0
2018-Apr-02 01:28N 39°13' E 009°04'0 0.0
2018-Apr-02 00:58N 39°13' E 009°04'0 0.0
2018-Apr-02 00:28N 39°13' E 009°04'0 0.0
2018-Apr-01 23:58N 39°13' E 009°04'0 0.0
2018-Apr-01 23:28N 39°13' E 009°04'0 0.0
2018-Apr-01 22:58N 39°13' E 009°04'0 0.0
2018-Apr-01 22:28N 39°13' E 009°04'0 0.0
2018-Apr-01 21:58N 39°13' E 009°04'0 0.0
2018-Apr-01 21:30N 39°13' E 009°04'2 4.0
2018-Apr-01 21:00N 39°11' E 009°06'4 7.8
2018-Apr-01 20:29N 39°07' E 009°06'714.0
2018-Apr-01 20:01N 39°01' E 009°07'917.6
2018-Apr-01 19:30N 38°53' E 009°01'1019.3
2018-Apr-01 19:00N 38°48' E 008°51'27319.3
2018-Apr-01 04:51N 39°01' E 002°60'1019.5
2018-Apr-01 04:21N 39°04' E 002°47'919.6
2018-Apr-01 03:55N 39°06' E 002°37'819.4
2018-Apr-01 03:30N 39°09' E 002°27'6819.4
2018-Apr-01 00:00N 39°18' E 001°00'5619.1 290 / 161017.310.8 14.9 7.513.0
2018-Mar-31 21:03N 39°25' W 000°12'116.4
2018-Mar-31 21:00N 39°25' W 000°13'5 9.7
2018-Mar-31 20:30N 39°27' W 000°19'0 0.6
2018-Mar-31 20:00N 39°27' W 000°19'0 0.0
2018-Mar-31 19:30N 39°27' W 000°19'0 0.0
2018-Mar-31 18:56N 39°27' W 000°19'0 0.0
2018-Mar-31 18:29N 39°27' W 000°19'0 0.0
2018-Mar-31 17:59N 39°27' W 000°19'0 0.0
2018-Mar-31 17:29N 39°27' W 000°19'0 0.0
2018-Mar-31 16:59N 39°27' W 000°19'0 0.0
2018-Mar-31 16:29N 39°27' W 000°19'0 0.0
2018-Mar-31 15:05N 39°27' W 000°19'0 0.0
2018-Mar-31 13:44N 39°27' W 000°19'0 0.0
2018-Mar-31 13:29N 39°27' W 000°19'0 0.0
2018-Mar-31 12:56N 39°27' W 000°19'0 0.0
2018-Mar-31 12:26N 39°27' W 000°19'0 0.0
2018-Mar-31 11:02N 39°27' W 000°19'0 0.1
2018-Mar-31 10:56N 39°27' W 000°19'0 0.1
2018-Mar-31 10:26N 39°27' W 000°19'0 0.1
2018-Mar-31 09:56N 39°27' W 000°19'0 0.0
2018-Mar-31 09:29N 39°27' W 000°19'0 0.0
2018-Mar-31 08:56N 39°27' W 000°19'0 0.0
2018-Mar-31 08:17N 39°27' W 000°19'0 0.0
2018-Mar-31 07:59N 39°27' W 000°19'0 0.0
2018-Mar-31 07:29N 39°27' W 000°19'0 0.0
2018-Mar-31 06:59N 39°27' W 000°19'0 0.0
2018-Mar-31 06:29N 39°27' W 000°19'0 0.1
2018-Mar-31 05:59N 39°27' W 000°19'0 0.0
2018-Mar-31 05:29N 39°27' W 000°19'0 0.0
2018-Mar-31 04:59N 39°27' W 000°19'0 0.0
2018-Mar-31 04:26N 39°27' W 000°19'0 0.0
2018-Mar-31 03:59N 39°27' W 000°19'0 0.0
2018-Mar-31 03:29N 39°27' W 000°19'0 0.0
2018-Mar-31 02:59N 39°27' W 000°19'0 0.0
2018-Mar-31 02:29N 39°27' W 000°19'0 0.0
2018-Mar-31 01:59N 39°27' W 000°19'0 0.0
2018-Mar-31 01:29N 39°27' W 000°19'0 0.0
2018-Mar-31 00:59N 39°27' W 000°19'0 0.0
2018-Mar-31 00:29N 39°27' W 000°19'0 0.0
2018-Mar-30 23:59N 39°27' W 000°19'0 0.0
2018-Mar-30 23:29N 39°27' W 000°19'0 0.0
2018-Mar-30 22:59N 39°27' W 000°19'0 0.0
2018-Mar-30 22:29N 39°27' W 000°19'0 0.0
2018-Mar-30 21:59N 39°27' W 000°19'0 0.0
2018-Mar-30 21:29N 39°27' W 000°19'0 0.0
2018-Mar-30 20:59N 39°27' W 000°19'0 0.0
2018-Mar-30 20:29N 39°27' W 000°19'0 0.0
2018-Mar-30 19:59N 39°27' W 000°19'0 0.0
2018-Mar-30 19:29N 39°27' W 000°19'0 0.0
2018-Mar-30 18:56N 39°27' W 000°19'0 0.0
2018-Mar-30 18:29N 39°27' W 000°19'0 0.0
2018-Mar-30 17:56N 39°27' W 000°19'0 0.0
2018-Mar-30 17:29N 39°27' W 000°19'0 0.0
2018-Mar-30 16:50N 39°27' W 000°19'0 0.0
2018-Mar-30 16:29N 39°27' W 000°19'0 0.0
2018-Mar-30 15:59N 39°27' W 000°19'0 0.1
2018-Mar-30 15:30N 39°27' W 000°19'3 4.8
2018-Mar-30 14:58N 39°25' W 000°17'4 8.4
2018-Mar-30 14:30N 39°22' W 000°13'3413.6
2018-Mar-30 12:00N 38°54' E 000°12'7512.0 130 / 101007.610.8 17.410.713.0
2018-Mar-30 05:44N 37°44' W 000°21'416.6
2018-Mar-30 05:30N 37°40' W 000°24'816.5
2018-Mar-30 05:00N 37°33' W 000°29'916.8
2018-Mar-30 04:30N 37°27' W 000°37'817.4
2018-Mar-30 04:00N 37°22' W 000°45'917.1
2018-Mar-30 03:29N 37°16' W 000°54'816.8
2018-Mar-30 03:00N 37°11' W 001°01'1116.9
2018-Mar-30 02:20N 37°03' W 001°12'4017.0
2018-Mar-30 00:00N 36°36' W 001°48'16417.4 270 / 191010.210.8 14.811.113.0
2018-Mar-29 14:33N 36°01' W 005°07'219.5
2018-Mar-29 14:28N 36°01' W 005°09'919.9
2018-Mar-29 14:00N 35°60' W 005°20'52 2.0
2018-Mar-28 12:00N 35°54' W 006°24'9111.8 270 / 51021.210.8 20.116.815.0
2018-Mar-28 04:17N 36°04' W 008°16'411.9
2018-Mar-28 03:56N 36°04' W 008°21'511.9
2018-Mar-28 03:30N 36°05' W 008°28'611.9
2018-Mar-28 03:00N 36°05' W 008°35'611.8
2018-Mar-28 02:30N 36°06' W 008°42'611.7
2018-Mar-28 02:00N 36°07' W 008°49'611.7
2018-Mar-28 01:30N 36°07' W 008°57'611.6
2018-Mar-28 01:00N 36°08' W 009°04'611.6
2018-Mar-28 00:30N 36°09' W 009°11'611.6
2018-Mar-28 00:00N 36°09' W 009°18'3208.8
2018-Mar-28 00:00N 36°06' W 009°18'714.0 360 / 161024.710.8 14.813.015.0
2018-Mar-27 23:30N 36°10' W 009°25'611.3
2018-Mar-27 23:00N 36°10' W 009°32'611.4
2018-Mar-27 22:30N 36°11' W 009°39'611.6
2018-Mar-27 22:00N 36°11' W 009°46'611.6
2018-Mar-27 21:30N 36°12' W 009°53'611.4
2018-Mar-27 21:00N 36°12' W 010°00'611.2
2018-Mar-27 20:30N 36°13' W 010°07'611.3
2018-Mar-27 20:00N 36°14' W 010°14'611.3
2018-Mar-27 19:30N 36°14' W 010°21'611.3
2018-Mar-27 19:00N 36°15' W 010°28'3211.1
2018-Mar-27 16:06N 36°18' W 011°08'2910.9
2018-Mar-27 13:29N 36°22' W 011°43'610.7
2018-Mar-27 12:58N 36°22' W 011°50'9 9.5
2018-Mar-27 12:00N 36°18' W 012°00'13211.0 020 / 141019.710.8 14.912.014.0
2018-Mar-27 00:00N 36°36' W 014°42'13511.3 040 / 91031.610.8 15.412.714.0
2018-Mar-26 12:00N 36°48' W 017°30'14011.7 020 / 71032.310.8 11.7 6.215.0
2018-Mar-26 00:00N 37°06' W 020°24'   010 / 101031.010.8 17.015.315.0
Track history (hours):
 
Tides and Currents Weather Stations Pressure Air Temp Water Temp Dewpoint Dewpoint Depression Visibility Wind Speed Wind Dir Waves Ship Positions

Cap Jackson

Last reported at 2018-Apr-04 21:39 UTC. Time now 2018-Jul-19 14:57 UTC.
Position N 44°25' E 008°47'.
Warning: this ship's position is months out of date.

Length 264 m; draft 8.4 m.

Type: Ship (hazmat cat A). MMSI: 636092020.

Date/timePositionNaut miles runAvg speedWind from/ knotsBaromVisibWave heightAir tempDewpointWater temp
2018-Apr-04 21:39N 44°25' E 008°47'0 0.0
2018-Apr-04 21:30N 44°25' E 008°47'0 0.0
2018-Apr-04 21:00N 44°25' E 008°47'0 0.0
2018-Apr-04 20:30N 44°25' E 008°47'0 0.0
2018-Apr-04 20:00N 44°25' E 008°47'0 0.0
2018-Apr-04 19:30N 44°25' E 008°47'0 0.0
2018-Apr-04 19:00N 44°25' E 008°47'0 0.0
2018-Apr-04 18:30N 44°25' E 008°47'0 0.0
2018-Apr-04 18:00N 44°25' E 008°47'0 0.0
2018-Apr-04 17:30N 44°25' E 008°47'0 0.0
2018-Apr-04 17:00N 44°25' E 008°47'0 0.0
2018-Apr-04 16:30N 44°25' E 008°47'0 0.0
2018-Apr-04 16:00N 44°25' E 008°47'0 0.0
2018-Apr-04 15:30N 44°25' E 008°47'0 0.0
2018-Apr-04 15:00N 44°25' E 008°47'0 0.0
2018-Apr-04 14:30N 44°25' E 008°47'0 0.0
2018-Apr-04 14:00N 44°25' E 008°47'0 0.0
2018-Apr-04 13:30N 44°25' E 008°47'0 0.0
2018-Apr-04 13:00N 44°25' E 008°47'0 0.0
2018-Apr-04 12:27N 44°25' E 008°47'0 0.0
2018-Apr-04 12:00N 44°25' E 008°47'0 0.0
2018-Apr-04 11:30N 44°25' E 008°47'0 0.0
2018-Apr-04 11:00N 44°25' E 008°47'0 0.0
2018-Apr-04 10:30N 44°25' E 008°47'0 0.0
2018-Apr-04 10:00N 44°25' E 008°47'0 0.0
2018-Apr-04 09:30N 44°25' E 008°47'0 0.0
2018-Apr-04 09:00N 44°25' E 008°47'0 0.0
2018-Apr-04 08:30N 44°25' E 008°47'0 0.0
2018-Apr-04 08:00N 44°25' E 008°47'0 0.7
2018-Apr-04 07:30N 44°25' E 008°47'3 5.7
2018-Apr-04 07:00N 44°23' E 008°44'4 7.0
2018-Apr-04 06:30N 44°20' E 008°44'4 8.4
2018-Apr-04 06:00N 44°16' E 008°47'4 8.6
2018-Apr-04 05:30N 44°12' E 008°50'4 7.8
2018-Apr-04 05:01N 44°09' E 008°52'4 7.6
2018-Apr-04 04:30N 44°05' E 008°54'5 9.5
2018-Apr-04 04:00N 44°02' E 008°60'5 9.7
2018-Apr-04 03:30N 43°59' E 009°05'510.0
2018-Apr-04 03:00N 43°56' E 009°10'713.6
2018-Apr-04 02:30N 43°52' E 009°18'713.9
2018-Apr-04 02:00N 43°47' E 009°25'714.6
2018-Apr-04 01:30N 43°43' E 009°33'714.1
2018-Apr-04 01:00N 43°38' E 009°41'713.9
2018-Apr-04 00:30N 43°34' E 009°48'713.4
2018-Apr-04 00:00N 43°30' E 009°56'612.8
2018-Apr-03 23:30N 43°30' E 010°05'612.8
2018-Apr-03 23:00N 43°32' E 010°14'4 7.2
2018-Apr-03 22:30N 43°34' E 010°18'1 2.0
2018-Apr-03 22:00N 43°34' E 010°18'0 0.0
2018-Apr-03 21:28N 43°34' E 010°18'0 0.0
2018-Apr-03 20:58N 43°34' E 010°18'0 0.0
2018-Apr-03 20:28N 43°34' E 010°18'0 0.0
2018-Apr-03 19:58N 43°34' E 010°18'0 0.0
2018-Apr-03 19:28N 43°34' E 010°18'0 0.0
2018-Apr-03 18:58N 43°34' E 010°18'0 0.0
2018-Apr-03 18:28N 43°34' E 010°18'0 0.0
2018-Apr-03 17:58N 43°34' E 010°18'0 0.0
2018-Apr-03 17:28N 43°34' E 010°18'0 0.0
2018-Apr-03 16:58N 43°34' E 010°18'0 0.0
2018-Apr-03 16:28N 43°34' E 010°18'0 0.0
2018-Apr-03 15:58N 43°34' E 010°18'0 0.0
2018-Apr-03 15:28N 43°34' E 010°18'0 0.0
2018-Apr-03 14:58N 43°34' E 010°18'0 0.0
2018-Apr-03 14:28N 43°34' E 010°18'0 0.0
2018-Apr-03 13:58N 43°34' E 010°18'0 0.0
2018-Apr-03 13:28N 43°34' E 010°18'0 0.0
2018-Apr-03 12:55N 43°34' E 010°18'0 0.0
2018-Apr-03 12:28N 43°34' E 010°18'0 0.0
2018-Apr-03 11:58N 43°34' E 010°18'0 0.0
2018-Apr-03 11:25N 43°34' E 010°18'0 0.0
2018-Apr-03 10:58N 43°34' E 010°18'0 0.0
2018-Apr-03 10:28N 43°34' E 010°18'0 0.0
2018-Apr-03 09:58N 43°34' E 010°18'0 0.0
2018-Apr-03 09:28N 43°34' E 010°18'0 0.0
2018-Apr-03 08:58N 43°34' E 010°18'0 0.0
2018-Apr-03 08:28N 43°34' E 010°18'0 0.0
2018-Apr-03 07:58N 43°34' E 010°18'0 0.0
2018-Apr-03 07:28N 43°34' E 010°18'0 0.0
2018-Apr-03 06:58N 43°34' E 010°18'0 0.0
2018-Apr-03 06:28N 43°34' E 010°18'0 0.0
2018-Apr-03 05:58N 43°34' E 010°18'0 0.0
2018-Apr-03 05:28N 43°34' E 010°18'0 0.6
2018-Apr-03 05:00N 43°34' E 010°18'3 5.6
2018-Apr-03 04:30N 43°32' E 010°16'4 7.0
2018-Apr-03 04:00N 43°30' E 010°12'2 4.6
2018-Apr-03 03:30N 43°28' E 010°11'4 8.2
2018-Apr-03 03:00N 43°24' E 010°10'5 9.9
2018-Apr-03 02:30N 43°19' E 010°08'611.4
2018-Apr-03 02:00N 43°13' E 010°06'917.4
2018-Apr-03 01:31N 43°05' E 010°03'917.6
2018-Apr-03 01:00N 42°56' E 010°00'1917.8
2018-Apr-02 23:55N 42°37' E 009°58'21818.3
2018-Apr-02 12:00N 39°00' E 009°36'611.2 090 / 151016.710.8 17.612.013.0
2018-Apr-02 11:27N 38°59' E 009°28'818.0
2018-Apr-02 11:00N 39°01' E 009°18'817.3
2018-Apr-02 10:30N 39°05' E 009°09'611.3
2018-Apr-02 10:00N 39°11' E 009°06'3 6.4
2018-Apr-02 09:30N 39°13' E 009°04'0 0.8
2018-Apr-02 08:59N 39°13' E 009°04'0 0.0
2018-Apr-02 08:30N 39°13' E 009°04'0 0.0
2018-Apr-02 07:58N 39°13' E 009°04'0 0.0
2018-Apr-02 07:28N 39°13' E 009°04'0 0.0
2018-Apr-02 06:58N 39°13' E 009°04'0 0.0
2018-Apr-02 06:28N 39°13' E 009°04'0 0.0
2018-Apr-02 05:58N 39°13' E 009°04'0 0.0
2018-Apr-02 05:28N 39°13' E 009°04'0 0.0
2018-Apr-02 04:58N 39°13' E 009°04'0 0.0
2018-Apr-02 04:28N 39°13' E 009°04'0 0.0
2018-Apr-02 03:58N 39°13' E 009°04'0 0.0
2018-Apr-02 03:28N 39°13' E 009°04'0 0.0
2018-Apr-02 02:58N 39°13' E 009°04'0 0.0
2018-Apr-02 02:25N 39°13' E 009°04'0 0.0
2018-Apr-02 01:58N 39°13' E 009°04'0 0.0
2018-Apr-02 01:28N 39°13' E 009°04'0 0.0
2018-Apr-02 00:58N 39°13' E 009°04'0 0.0
2018-Apr-02 00:28N 39°13' E 009°04'0 0.0
2018-Apr-01 23:58N 39°13' E 009°04'0 0.0
2018-Apr-01 23:28N 39°13' E 009°04'0 0.0
2018-Apr-01 22:58N 39°13' E 009°04'0 0.0
2018-Apr-01 22:28N 39°13' E 009°04'0 0.0
2018-Apr-01 21:58N 39°13' E 009°04'0 0.0
2018-Apr-01 21:30N 39°13' E 009°04'2 4.0
2018-Apr-01 21:00N 39°11' E 009°06'4 7.8
2018-Apr-01 20:29N 39°07' E 009°06'714.0
2018-Apr-01 20:01N 39°01' E 009°07'917.6
2018-Apr-01 19:30N 38°53' E 009°01'1019.3
2018-Apr-01 19:00N 38°48' E 008°51'27319.3
2018-Apr-01 04:51N 39°01' E 002°60'1019.5
2018-Apr-01 04:21N 39°04' E 002°47'919.6
2018-Apr-01 03:55N 39°06' E 002°37'819.4
2018-Apr-01 03:30N 39°09' E 002°27'6819.4
2018-Apr-01 00:00N 39°18' E 001°00'5619.1 290 / 161017.310.8 14.9 7.513.0
2018-Mar-31 21:03N 39°25' W 000°12'116.4
2018-Mar-31 21:00N 39°25' W 000°13'5 9.7
2018-Mar-31 20:30N 39°27' W 000°19'0 0.6
2018-Mar-31 20:00N 39°27' W 000°19'0 0.0
2018-Mar-31 19:30N 39°27' W 000°19'0 0.0
2018-Mar-31 18:56N 39°27' W 000°19'0 0.0
2018-Mar-31 18:29N 39°27' W 000°19'0 0.0
2018-Mar-31 17:59N 39°27' W 000°19'0 0.0
2018-Mar-31 17:29N 39°27' W 000°19'0 0.0
2018-Mar-31 16:59N 39°27' W 000°19'0 0.0
2018-Mar-31 16:29N 39°27' W 000°19'0 0.0
2018-Mar-31 15:05N 39°27' W 000°19'0 0.0
2018-Mar-31 13:44N 39°27' W 000°19'0 0.0
2018-Mar-31 13:29N 39°27' W 000°19'0 0.0
2018-Mar-31 12:56N 39°27' W 000°19'0 0.0
2018-Mar-31 12:26N 39°27' W 000°19'0 0.0
2018-Mar-31 11:02N 39°27' W 000°19'0 0.1
2018-Mar-31 10:56N 39°27' W 000°19'0 0.1
2018-Mar-31 10:26N 39°27' W 000°19'0 0.1
2018-Mar-31 09:56N 39°27' W 000°19'0 0.0
2018-Mar-31 09:29N 39°27' W 000°19'0 0.0
2018-Mar-31 08:56N 39°27' W 000°19'0 0.0
2018-Mar-31 08:17N 39°27' W 000°19'0 0.0
2018-Mar-31 07:59N 39°27' W 000°19'0 0.0
2018-Mar-31 07:29N 39°27' W 000°19'0 0.0
2018-Mar-31 06:59N 39°27' W 000°19'0 0.0
2018-Mar-31 06:29N 39°27' W 000°19'0 0.1
2018-Mar-31 05:59N 39°27' W 000°19'0 0.0
2018-Mar-31 05:29N 39°27' W 000°19'0 0.0
2018-Mar-31 04:59N 39°27' W 000°19'0 0.0
2018-Mar-31 04:26N 39°27' W 000°19'0 0.0
2018-Mar-31 03:59N 39°27' W 000°19'0 0.0
2018-Mar-31 03:29N 39°27' W 000°19'0 0.0
2018-Mar-31 02:59N 39°27' W 000°19'0 0.0
2018-Mar-31 02:29N 39°27' W 000°19'0 0.0
2018-Mar-31 01:59N 39°27' W 000°19'0 0.0
2018-Mar-31 01:29N 39°27' W 000°19'0 0.0
2018-Mar-31 00:59N 39°27' W 000°19'0 0.0
2018-Mar-31 00:29N 39°27' W 000°19'0 0.0
2018-Mar-30 23:59N 39°27' W 000°19'0 0.0
2018-Mar-30 23:29N 39°27' W 000°19'0 0.0
2018-Mar-30 22:59N 39°27' W 000°19'0 0.0
2018-Mar-30 22:29N 39°27' W 000°19'0 0.0
2018-Mar-30 21:59N 39°27' W 000°19'0 0.0
2018-Mar-30 21:29N 39°27' W 000°19'0 0.0
2018-Mar-30 20:59N 39°27' W 000°19'0 0.0
2018-Mar-30 20:29N 39°27' W 000°19'0 0.0
2018-Mar-30 19:59N 39°27' W 000°19'0 0.0
2018-Mar-30 19:29N 39°27' W 000°19'0 0.0
2018-Mar-30 18:56N 39°27' W 000°19'0 0.0
2018-Mar-30 18:29N 39°27' W 000°19'0 0.0
2018-Mar-30 17:56N 39°27' W 000°19'0 0.0
2018-Mar-30 17:29N 39°27' W 000°19'0 0.0
2018-Mar-30 16:50N 39°27' W 000°19'0 0.0
2018-Mar-30 16:29N 39°27' W 000°19'0 0.0
2018-Mar-30 15:59N 39°27' W 000°19'0 0.1
2018-Mar-30 15:30N 39°27' W 000°19'3 4.8
2018-Mar-30 14:58N 39°25' W 000°17'4 8.4
2018-Mar-30 14:30N 39°22' W 000°13'3413.6
2018-Mar-30 12:00N 38°54' E 000°12'7512.0 130 / 101007.610.8 17.410.713.0
2018-Mar-30 05:44N 37°44' W 000°21'416.6
2018-Mar-30 05:30N 37°40' W 000°24'816.5
2018-Mar-30 05:00N 37°33' W 000°29'916.8
2018-Mar-30 04:30N 37°27' W 000°37'817.4
2018-Mar-30 04:00N 37°22' W 000°45'917.1
2018-Mar-30 03:29N 37°16' W 000°54'816.8
2018-Mar-30 03:00N 37°11' W 001°01'1116.9
2018-Mar-30 02:20N 37°03' W 001°12'4017.0
2018-Mar-30 00:00N 36°36' W 001°48'16417.4 270 / 191010.210.8 14.811.113.0
2018-Mar-29 14:33N 36°01' W 005°07'219.5
2018-Mar-29 14:28N 36°01' W 005°09'919.9
2018-Mar-29 14:00N 35°60' W 005°20'52 2.0
2018-Mar-28 12:00N 35°54' W 006°24'9111.8 270 / 51021.210.8 20.116.815.0
2018-Mar-28 04:17N 36°04' W 008°16'411.9
2018-Mar-28 03:56N 36°04' W 008°21'511.9
2018-Mar-28 03:30N 36°05' W 008°28'611.9
2018-Mar-28 03:00N 36°05' W 008°35'611.8
2018-Mar-28 02:30N 36°06' W 008°42'611.7
2018-Mar-28 02:00N 36°07' W 008°49'611.7
2018-Mar-28 01:30N 36°07' W 008°57'611.6
2018-Mar-28 01:00N 36°08' W 009°04'611.6
2018-Mar-28 00:30N 36°09' W 009°11'611.6
2018-Mar-28 00:00N 36°09' W 009°18'3208.8
2018-Mar-28 00:00N 36°06' W 009°18'714.0 360 / 161024.710.8 14.813.015.0
2018-Mar-27 23:30N 36°10' W 009°25'611.3
2018-Mar-27 23:00N 36°10' W 009°32'611.4
2018-Mar-27 22:30N 36°11' W 009°39'611.6
2018-Mar-27 22:00N 36°11' W 009°46'611.6
2018-Mar-27 21:30N 36°12' W 009°53'611.4
2018-Mar-27 21:00N 36°12' W 010°00'611.2
2018-Mar-27 20:30N 36°13' W 010°07'611.3
2018-Mar-27 20:00N 36°14' W 010°14'611.3
2018-Mar-27 19:30N 36°14' W 010°21'611.3
2018-Mar-27 19:00N 36°15' W 010°28'3211.1
2018-Mar-27 16:06N 36°18' W 011°08'2910.9
2018-Mar-27 13:29N 36°22' W 011°43'610.7
2018-Mar-27 12:58N 36°22' W 011°50'9 9.5
2018-Mar-27 12:00N 36°18' W 012°00'13211.0 020 / 141019.710.8 14.912.014.0
2018-Mar-27 00:00N 36°36' W 014°42'13511.3 040 / 91031.610.8 15.412.714.0
2018-Mar-26 12:00N 36°48' W 017°30'14011.7 020 / 71032.310.8 11.7 6.215.0
2018-Mar-26 00:00N 37°06' W 020°24'   010 / 101031.010.8 17.015.315.0

Dump ship's entire track history